Kalaheo, HI

7:47 PM HST on October 30, 2014 (GMT -1000)
Koloa Landing - Whaler's Cove | Change Station
CLOSE
Current Station
Personal Weather Station
Location: Koloa, HI
Elevation: 25 ft
Nearby Weather Stations
Active Advisory: High Surf Advisory

Elev 25 ft 21.88 °N, 159.47 °W | Updated 15 seconds ago

Mostly Cloudy
Mostly Cloudy
74.1 °F
Feels Like 72 °F
N
1.1
Wind Variable Wind from East
Gusts 2.5 mph

Today
High -- | Low -- °F
--% Chance of Precip.
Yesterday
High -- | Low -- °F
Precip. -- in
6:40 AM 6:02 PM
First Quarter, 51% visible
Pressure 30.09 in
Visibility 10.0 miles
Clouds Few 1600 ft
Scattered Clouds 2200 ft
Mostly Cloudy 2700 ft
Heat Index 72 °F
Dew Point 71 °F
Humidity 90%
Rainfall 0.15 in
Snow Depth Not available.
UV 0 out of 12
Pollen Not available.
Air Quality Not available.
Flu Activity Not available.
SPECI PHLI 310530Z 05021KT 10SM FEW016 SCT022 BKN027 24/21 A3009 RMK AO2 PK WND 05027/0510

More Conditions Fewer Conditions

Pressure 30.09 in
Visibility 10.0 miles
Clouds Few 1600 ft
Scattered Clouds 2200 ft
Mostly Cloudy 2700 ft
Heat Index 72 °F
Dew Point 71 °F
Humidity 90%
Rainfall 0.15 in
Snow Depth Not available.
UV 0 out of 12
Pollen Not available.
Air Quality Not available.
Flu Activity Not available.
SPECI PHLI 310530Z 05021KT 10SM FEW016 SCT022 BKN027 24/21 A3009 RMK AO2 PK WND 05027/0510

More Conditions Fewer Conditions

10-Day Weather Forecast

Almanac

Astronomy

Oct. 30, 2014 Rise Set
Actual Time
Civil Twilight
Nautical Twilight
Astronomical Twilight
Moon
Length of Visible Light
Length of Day
Tomorrow will be .
, % of the Moon is Illuminated

Today's Extremes

State Highs State Lows

Community

WunderPhotos

Upload Photos

1,766,570 photos uploaded!

WunderBlogs® & News

Nearby

Air Quality

  Air Quality AQ Index Pollutant
Not available.

Snow Depth

Station Depth Elevation

Earthquake Activity

City Distance Mag. Time & Date
Minimum magnitude displayed is 2.5.

Coastal Water Temperatures

Place Temperature

Nearby Weather Stations